Time;durP1;ratioP1;P1;durP2;ratioP2;P2;SDS_P1;SDS_P2;PMS_P1;PMS_P2;Temp;Humidity;BMP_temperature;BMP_pressure;BME280_temperature;BME280_humidity;BME280_pressure;Samples;Min_cycle;Max_cycle;Signal;HPM_P1;HPM_P2
2022/04/11 00:00:31;;;;;;;12.18;10.07;;;;;;;6.40;100.00;101861.72;5262307;28;20388;-64
2022/04/11 00:03:01;;;;;;;13.40;10.82;;;;;;;6.42;100.00;101858.84;5246991;28;20032;-64
2022/04/11 00:05:31;;;;;;;11.30;9.88;;;;;;;6.42;100.00;101850.81;5245658;28;20474;-64
2022/04/11 00:08:02;;;;;;;11.18;10.48;;;;;;;6.38;100.00;101846.88;5245741;28;20035;-64
2022/04/11 00:10:33;;;;;;;11.65;10.63;;;;;;;6.44;100.00;101854.09;5246830;28;20020;-64
2022/04/11 00:13:05;;;;;;;12.80;9.88;;;;;;;6.49;100.00;101853.50;5245513;28;20020;-64
2022/04/11 00:15:38;;;;;;;11.15;10.02;;;;;;;6.46;100.00;101837.81;5245386;28;20172;-64
2022/04/11 00:18:09;;;;;;;11.82;11.02;;;;;;;6.56;100.00;101851.66;5245598;28;20020;-64
2022/04/11 00:20:40;;;;;;;9.95;8.90;;;;;;;6.57;100.00;101837.22;5245353;28;20024;-64
2022/04/11 00:23:11;;;;;;;9.00;8.45;;;;;;;6.59;100.00;101846.72;5262344;28;20441;-63
2022/04/11 00:25:41;;;;;;;10.25;9.35;;;;;;;6.62;100.00;101840.94;5245173;28;20036;-64
2022/04/11 00:28:12;;;;;;;10.75;8.02;;;;;;;6.63;100.00;101839.91;5262326;28;20020;-64
2022/04/11 00:30:42;;;;;;;10.45;9.63;;;;;;;6.59;100.00;101832.47;5262155;28;20031;-64
2022/04/11 00:33:12;;;;;;;9.35;8.75;;;;;;;6.59;100.00;101827.91;5246122;28;20361;-64
2022/04/11 00:35:43;;;;;;;8.48;7.97;;;;;;;6.53;100.00;101818.00;5246634;28;20023;-64
2022/04/11 00:38:14;;;;;;;9.73;8.48;;;;;;;6.44;100.00;101803.94;5262039;28;20031;-64
2022/04/11 00:40:44;;;;;;;11.40;8.93;;;;;;;6.54;100.00;101825.03;5262002;28;20590;-64
2022/04/11 00:43:34;;;;;;;11.10;8.35;;;;;;;6.51;100.00;101819.25;5261675;28;20074;-64
2022/04/11 00:46:06;;;;;;;9.27;8.43;;;;;;;6.50;100.00;101820.28;5261830;28;20068;-64
2022/04/11 00:48:37;;;;;;;18.23;7.95;;;;;;;6.55;100.00;101817.78;5244930;28;20024;-64
2022/04/11 00:51:17;;;;;;;8.10;7.60;;;;;;;6.55;100.00;101815.94;5261686;28;20051;-64
2022/04/11 00:53:48;;;;;;;8.98;8.18;;;;;;;6.51;100.00;101811.19;5261233;28;20111;-62
2022/04/11 00:56:19;;;;;;;8.85;8.02;;;;;;;6.31;100.00;101781.69;5244924;28;20059;-63
2022/04/11 00:58:50;;;;;;;9.13;8.07;;;;;;;6.38;100.00;101793.22;5261732;28;20097;-64
2022/04/11 01:01:21;;;;;;;14.13;7.90;;;;;;;6.50;100.00;101812.22;5244395;28;20021;-64
2022/04/11 01:03:52;;;;;;;8.30;7.78;;;;;;;6.51;100.00;101809.34;5244445;28;20055;-63
2022/04/11 01:06:23;;;;;;;9.25;8.65;;;;;;;6.50;100.00;101813.03;5261464;28;20534;-64
2022/04/11 01:08:57;;;;;;;10.90;8.48;;;;;;;6.51;100.00;101809.34;5244675;28;20024;-64
2022/04/11 01:11:28;;;;;;;8.38;7.82;;;;;;;6.51;100.00;101809.34;5243931;28;20031;-63
2022/04/11 01:13:58;;;;;;;8.05;7.55;;;;;;;6.47;100.00;101802.72;5261100;28;20487;-63
2022/04/11 01:16:29;;;;;;;8.20;7.55;;;;;;;6.47;100.00;101805.41;5261528;28;20024;-63
2022/04/11 01:18:59;;;;;;;9.70;8.10;;;;;;;6.48;100.00;101798.19;5261194;28;20112;-65
2022/04/11 01:21:32;;;;;;;8.50;8.00;;;;;;;6.44;100.00;101795.06;5261421;28;20024;-63
2022/04/11 01:24:03;;;;;;;8.07;7.25;;;;;;;6.43;100.00;101783.53;5245437;28;20032;-64
2022/04/11 01:26:35;;;;;;;12.40;8.43;;;;;;;6.42;100.00;101783.72;5261161;28;20405;-64
2022/04/11 01:29:08;;;;;;;8.63;8.02;;;;;;;6.41;100.00;101782.06;5244495;28;20410;-64
2022/04/11 01:31:39;;;;;;;9.25;8.63;;;;;;;6.37;100.00;101780.81;5261283;28;20047;-64
2022/04/11 01:34:09;;;;;;;9.38;8.55;;;;;;;6.38;100.00;101780.63;5261080;28;20686;-63
2022/04/11 01:36:40;;;;;;;9.93;9.32;;;;;;;6.35;100.00;101781.03;5245734;28;20390;-63
2022/04/11 01:39:10;;;;;;;9.57;8.85;;;;;;;6.29;100.00;101778.38;5261019;28;20545;-63
2022/04/11 01:41:41;;;;;;;8.32;7.75;;;;;;;6.24;100.00;101789.72;5260974;28;20051;-63
2022/04/11 01:44:11;;;;;;;9.90;9.20;;;;;;;6.16;100.00;101791.75;5243686;28;20028;-63
2022/04/11 01:46:43;;;;;;;9.63;8.82;;;;;;;6.07;100.00;101791.94;5244586;28;20195;-63
2022/04/11 01:49:13;;;;;;;9.30;8.60;;;;;;;6.00;100.00;101787.59;5244265;28;20021;-63
2022/04/11 01:51:44;;;;;;;10.02;9.15;;;;;;;5.91;100.00;101789.63;5260988;28;20035;-64
2022/04/11 01:54:14;;;;;;;10.07;9.18;;;;;;;5.82;100.00;101788.13;5260681;28;20055;-63
2022/04/11 01:56:45;;;;;;;15.38;9.00;;;;;;;5.50;100.00;101765.56;5244229;28;20032;-64
2022/04/11 01:59:16;;;;;;;8.45;7.85;;;;;;;5.09;100.00;101726.25;5267744;22;20052;-82
2022/04/11 02:13:14;;;;;;;;;;;;;;;4.96;100.00;101793.09;5491299;22;20053;-81
2022/04/11 02:15:45;;;;;;;14.35;9.63;;;;;;;4.59;100.00;101758.69;5210261;28;20450;-81
2022/04/11 02:18:15;;;;;;;10.07;9.23;;;;;;;4.64;100.00;101783.81;5213727;28;20029;-82
2022/04/11 02:20:45;;;;;;;10.68;9.80;;;;;;;4.63;100.00;101790.16;5214735;28;20017;-81
2022/04/11 02:23:16;;;;;;;10.20;9.27;;;;;;;4.50;100.00;101792.75;5197615;28;20025;-80
2022/04/11 02:25:46;;;;;;;9.93;9.23;;;;;;;4.45;100.00;101794.34;5217266;28;20021;-84
2022/04/11 02:28:21;;;;;;;10.25;9.18;;;;;;;4.26;100.00;101777.94;5217964;28;20021;-82
2022/04/11 02:30:51;;;;;;;10.20;9.60;;;;;;;4.22;100.00;101789.22;5218070;28;20018;-82
2022/04/11 02:33:21;;;;;;;14.95;9.18;;;;;;;4.16;100.00;101784.63;5218023;28;20025;-82
2022/04/11 02:35:52;;;;;;;9.55;8.82;;;;;;;4.07;100.00;101784.75;5218485;28;20077;-82
2022/04/11 02:38:22;;;;;;;9.32;8.63;;;;;;;4.03;100.00;101799.53;5218657;28;20056;-82
2022/04/11 02:40:53;;;;;;;9.88;9.23;;;;;;;3.74;100.00;101764.91;5217723;28;20060;-81
2022/04/11 02:43:23;;;;;;;10.70;9.80;;;;;;;3.91;100.00;101803.72;5216837;28;20048;-82
2022/04/11 02:45:53;;;;;;;10.75;9.88;;;;;;;3.80;100.00;101788.16;5217754;28;20029;-81
2022/04/11 02:48:24;;;;;;;11.35;10.65;;;;;;;3.73;100.00;101781.94;5217862;28;20029;-81
2022/04/11 02:50:54;;;;;;;11.32;9.88;;;;;;;3.65;100.00;101766.00;5217877;28;20072;-82
2022/04/11 02:53:25;;;;;;;9.57;8.90;;;;;;;3.53;100.00;101746.97;5217410;28;20041;-81
2022/04/11 02:55:55;;;;;;;9.80;9.15;;;;;;;3.77;100.00;101793.88;5199985;28;20021;-83
2022/04/11 03:01:53;;;;;;;9.38;8.82;;;;;;;3.54;100.00;101795.88;5217453;28;20044;-82
2022/04/11 03:04:23;;;;;;;9.48;8.85;;;;;;;3.39;100.00;101796.72;5217205;28;20025;-82
2022/04/11 03:06:54;;;;;;;11.07;9.93;;;;;;;2.92;100.00;101735.72;5199744;28;20032;-83
2022/04/11 03:09:25;;;;;;;9.88;8.70;;;;;;;3.27;100.00;101800.88;5217695;28;20042;-82
2022/04/11 03:11:55;;;;;;;10.02;9.43;;;;;;;3.10;100.00;101783.41;5204288;28;20036;-81
2022/04/11 03:14:25;;;;;;;12.63;11.65;;;;;;;3.05;100.00;101802.63;5237933;28;20048;-81
2022/04/11 03:16:56;;;;;;;9.95;9.38;;;;;;;2.95;100.00;101791.38;5238547;28;20029;-83
2022/04/11 03:19:26;;;;;;;11.07;10.38;;;;;;;2.61;100.00;101730.56;5219531;28;20029;-81
2022/04/11 03:21:58;;;;;;;11.05;10.23;;;;;;;2.96;100.00;101781.53;5219507;28;20025;-82
2022/04/11 03:24:28;;;;;;;10.98;10.23;;;;;;;2.92;100.00;101766.91;5237891;28;20021;-81
2022/04/11 03:26:59;;;;;;;10.23;9.52;;;;;;;2.90;100.00;101750.25;5236774;28;20078;-81
2022/04/11 03:29:30;;;;;;;11.35;10.63;;;;;;;2.96;100.00;101770.88;5236343;28;20029;-81
2022/04/11 03:32:00;;;;;;;11.52;10.73;;;;;;;2.61;100.00;101719.91;5217488;28;20021;-81
2022/04/11 03:34:31;;;;;;;12.77;11.65;;;;;;;2.90;100.00;101767.09;5237917;22;20140;-58
2022/04/11 03:37:01;;;;;;;10.68;9.77;;;;;;;3.00;100.00;101773.00;5210217;28;20078;-58
2022/04/11 03:39:32;;;;;;;9.68;8.93;;;;;;;3.02;100.00;101762.13;5227288;28;20021;-58
2022/04/11 03:42:02;;;;;;;11.65;10.95;;;;;;;3.09;100.00;101778.25;5210330;28;20086;-58
2022/04/11 03:44:35;;;;;;;12.35;10.48;;;;;;;3.06;100.00;101782.09;5244444;28;20119;-58
2022/04/11 03:47:06;;;;;;;11.38;10.55;;;;;;;2.84;100.00;101773.19;5238639;22;20128;-59
2022/04/11 03:49:36;;;;;;;11.43;10.75;;;;;;;2.81;100.00;101783.38;5239304;28;20170;-57
2022/04/11 03:52:07;;;;;;;12.20;11.27;;;;;;;2.66;100.00;101789.50;5230772;28;20044;-61
2022/04/11 03:54:37;;;;;;;10.80;10.18;;;;;;;2.50;100.00;101787.00;5230703;28;20383;-59
2022/04/11 03:57:08;;;;;;;11.30;10.50;;;;;;;2.39;100.00;101784.75;5230391;28;20118;-59
2022/04/11 03:59:38;;;;;;;13.02;12.13;;;;;;;2.27;100.00;101780.88;5229711;28;20398;-59
2022/04/11 04:02:09;;;;;;;11.20;10.25;;;;;;;2.23;100.00;101783.06;5229623;28;20089;-59
2022/04/11 04:04:39;;;;;;;12.65;11.70;;;;;;;2.20;100.00;101790.59;5229731;28;20032;-58
2022/04/11 04:07:10;;;;;;;14.35;13.40;;;;;;;2.14;100.00;101775.31;5229471;28;20040;-59
2022/04/11 04:09:40;;;;;;;11.88;11.15;;;;;;;2.11;100.00;101778.31;5229488;28;20024;-61
2022/04/11 04:12:10;;;;;;;12.93;12.13;;;;;;;2.12;100.00;101778.16;5229534;28;20035;-60
2022/04/11 04:14:41;;;;;;;15.45;12.90;;;;;;;2.25;100.00;101774.91;5245985;28;20025;-60
2022/04/11 04:20:19;;;;;;;12.65;11.80;;;;;;;2.27;100.00;101770.22;5247830;28;20090;-60
2022/04/11 04:22:50;;;;;;;12.35;11.45;;;;;;;2.11;100.00;101741.03;5231092;28;20383;-58
2022/04/11 04:25:20;;;;;;;11.43;10.73;;;;;;;2.11;100.00;101739.19;5248100;28;20227;-58
2022/04/11 04:27:50;;;;;;;10.40;9.75;;;;;;;2.35;100.00;101778.97;5231255;28;20112;-58
2022/04/11 04:30:21;;;;;;;11.40;10.70;;;;;;;2.47;100.00;101766.03;5248788;28;20034;-58
2022/04/11 04:44:22;;;;;;;;;;;;;;;2.66;100.00;101757.50;1739041;22;20038;-60
2022/04/11 04:46:52;;;;;;;13.20;12.02;;;;;;;2.71;100.00;101755.13;5262431;28;19919;-61
2022/04/11 04:49:23;;;;;;;12.68;11.82;;;;;;;2.71;100.00;101752.47;5288973;28;20023;-61
2022/04/11 04:51:55;;;;;;;13.80;10.85;;;;;;;2.70;100.00;101756.16;5271799;28;20026;-61
2022/04/11 04:57:07;;;;;;;;;;;;;;;2.74;100.00;101755.78;5560098;22;20052;-79
2022/04/11 04:59:37;;;;;;;11.43;9.55;;;;;;;2.76;100.00;101759.09;5231526;28;19924;-81
2022/04/11 05:02:08;;;;;;;11.45;10.65;;;;;;;2.80;100.00;101755.06;5231596;28;20025;-80
2022/04/11 05:04:38;;;;;;;13.88;12.68;;;;;;;2.70;100.00;101758.81;5231452;28;20021;-82
2022/04/11 05:07:08;;;;;;;11.25;10.32;;;;;;;2.45;100.00;101713.91;5231634;28;20024;-80
2022/04/11 05:09:39;;;;;;;11.25;10.23;;;;;;;2.53;100.00;101712.00;5214745;28;20021;-80
2022/04/11 05:12:09;;;;;;;11.43;10.63;;;;;;;2.61;100.00;101698.56;5214875;28;20055;-81
2022/04/11 05:14:40;;;;;;;9.50;8.82;;;;;;;2.94;100.00;101746.22;5233085;28;20544;-80
2022/04/11 05:17:11;;;;;;;13.18;11.82;;;;;;;2.98;100.00;101742.16;5215470;28;20048;-81
2022/04/11 05:19:41;;;;;;;10.20;9.35;;;;;;;3.00;100.00;101753.50;5233244;28;20032;-80
2022/04/11 05:22:11;;;;;;;14.13;10.43;;;;;;;2.83;100.00;101715.50;5232569;28;20028;-79
2022/04/11 05:24:42;;;;;;;10.82;9.45;;;;;;;2.91;100.00;101714.56;5232145;28;20105;-82
2022/04/11 05:27:12;;;;;;;10.35;9.65;;;;;;;2.80;100.00;101696.38;5232265;28;20059;-81
2022/04/11 05:29:43;;;;;;;11.57;10.60;;;;;;;2.91;100.00;101688.72;5221667;28;20032;-82
2022/04/11 05:32:13;;;;;;;14.27;10.65;;;;;;;3.39;100.00;101754.00;5232669;28;20493;-82
2022/04/11 05:34:44;;;;;;;9.88;9.20;;;;;;;3.32;100.00;101729.06;5231864;28;20044;-80
2022/04/11 05:37:14;;;;;;;10.82;9.80;;;;;;;3.52;100.00;101749.81;5233058;28;20025;-82
2022/04/11 05:39:44;;;;;;;10.25;9.57;;;;;;;3.30;100.00;101700.91;5214457;28;20079;-80
2022/04/11 05:42:15;;;;;;;11.43;10.23;;;;;;;3.70;100.00;101744.91;5232797;28;20025;-81
2022/04/11 05:44:46;;;;;;;10.77;9.95;;;;;;;3.53;100.00;101695.41;5232155;28;20045;-80
2022/04/11 05:47:16;;;;;;;16.77;15.57;;;;;;;3.86;100.00;101738.50;5232383;28;20021;-80
2022/04/11 05:50:27;;;;;;;11.43;10.18;;;;;;;4.00;100.00;101730.44;5214014;28;20035;-80
2022/04/11 05:58:43;;;;;;;;;;;;;;;4.44;100.00;101733.88;6229519;22;20266;-80
2022/04/11 06:01:14;;;;;;;17.55;8.98;;;;;;;4.34;100.00;101691.41;5280828;22;20456;-80
2022/04/11 06:03:44;;;;;;;8.57;7.85;;;;;;;4.08;100.00;101644.75;5225332;28;20051;-80
2022/04/11 06:06:15;;;;;;;8.20;7.40;;;;;;;4.59;100.00;101710.53;5238139;28;20032;-80
2022/04/11 06:08:45;;;;;;;8.38;7.50;;;;;;;4.51;100.00;101668.72;5238612;28;20017;-80
2022/04/11 06:11:16;;;;;;;10.95;6.50;;;;;;;5.06;100.00;101733.84;5238158;28;20020;-80
2022/04/11 06:13:47;;;;;;;9.45;8.50;;;;;;;5.13;100.00;101729.38;5251639;22;20036;-62
2022/04/11 06:16:17;;;;;;;9.45;8.68;;;;;;;5.24;100.00;101736.00;5261693;28;20032;-60
2022/04/11 06:18:48;;;;;;;7.72;7.22;;;;;;;5.28;100.00;101732.72;5274334;28;20072;-63
2022/04/11 06:21:18;;;;;;;20.63;6.88;;;;;;;5.35;100.00;101755.00;5292559;28;20022;-60
2022/04/11 06:23:49;;;;;;;6.10;5.80;;;;;;;5.37;100.00;101734.19;5281720;28;20543;-60
2022/04/11 06:26:19;;;;;;;6.63;6.22;;;;;;;5.47;100.00;101741.03;5272493;28;20410;-60
2022/04/11 06:28:50;;;;;;;6.53;5.90;;;;;;;5.55;100.00;101747.03;5254814;28;20027;-62
2022/04/11 06:31:20;;;;;;;6.90;6.40;;;;;;;5.59;100.00;101745.59;5255064;28;20036;-60
2022/04/11 06:33:50;;;;;;;7.00;6.30;;;;;;;5.65;100.00;101739.44;5254539;28;20030;-60
2022/04/11 06:36:21;;;;;;;5.90;5.47;;;;;;;5.74;100.00;101742.78;5255663;28;20089;-61
2022/04/11 06:38:51;;;;;;;5.78;5.28;;;;;;;5.76;100.00;101725.47;5254978;28;20024;-60
2022/04/11 06:41:22;;;;;;;6.32;6.00;;;;;;;5.95;100.00;101741.81;5254601;28;20051;-60
2022/04/11 06:43:52;;;;;;;6.55;6.25;;;;;;;6.01;100.00;101738.31;5254131;28;20038;-61
2022/04/11 06:46:23;;;;;;;5.20;4.22;;;;;;;6.09;100.00;101730.06;5254714;28;20032;-59
2022/04/11 06:48:54;;;;;;;6.50;5.68;;;;;;;6.20;100.00;101742.88;5254236;28;20024;-61
2022/04/11 06:51:24;;;;;;;6.50;6.00;;;;;;;6.25;100.00;101728.84;5254502;28;20024;-62
2022/04/11 06:53:54;;;;;;;6.53;5.88;;;;;;;6.31;100.00;101720.81;5254797;28;20031;-60
2022/04/11 06:56:25;;;;;;;5.18;4.90;;;;;;;6.26;100.00;101701.00;5254251;28;20516;-62
2022/04/11 06:58:56;;;;;;;6.00;4.85;;;;;;;6.36;100.00;101707.56;5253554;28;20028;-61
2022/04/11 07:01:26;;;;;;;4.45;4.25;;;;;;;6.51;100.00;101706.53;5253104;28;20052;-62
2022/04/11 07:03:57;;;;;;;9.13;5.45;;;;;;;6.58;100.00;101707.38;5246364;22;20502;-60
2022/04/11 07:06:27;;;;;;;8.93;6.28;;;;;;;6.75;100.00;101719.28;5189741;28;20013;-59
2022/04/11 07:08:58;;;;;;;6.03;5.72;;;;;;;6.87;100.00;101714.13;5189109;28;20021;-61
2022/04/11 07:11:31;;;;;;;6.68;5.32;;;;;;;6.51;100.00;101640.28;5189885;28;20022;-59
2022/04/11 07:14:03;;;;;;;5.75;5.45;;;;;;;7.11;100.00;101719.63;5189685;28;20055;-59
2022/04/11 07:16:33;;;;;;;6.78;6.18;;;;;;;7.21;100.00;101718.34;5206504;28;20469;-59
2022/04/11 07:19:04;;;;;;;5.35;4.88;;;;;;;7.32;100.00;101714.97;5239062;22;20064;-58
2022/04/11 07:21:34;;;;;;;10.48;5.35;;;;;;;7.40;100.00;101706.69;5210231;28;20136;-61
2022/04/11 07:24:05;;;;;;;4.70;4.45;;;;;;;7.57;100.00;101715.88;5210698;28;20413;-58
2022/04/11 07:26:40;;;;;;;8.32;4.93;;;;;;;7.59;100.00;101692.31;5228796;28;20437;-59
2022/04/11 07:36:04;;;;;;;5.60;5.13;;;;;;;8.16;100.00;101706.59;5227690;28;20041;-56
2022/04/11 07:38:34;;;;;;;6.97;6.32;;;;;;;8.27;100.00;101705.06;5210379;28;20106;-58
2022/04/11 07:41:05;;;;;;;4.68;4.47;;;;;;;8.42;100.00;101708.25;5228182;28;20037;-58
2022/04/11 07:43:35;;;;;;;5.50;5.10;;;;;;;8.49;100.00;101684.81;5232204;23;20041;-63
2022/04/11 07:46:06;;;;;;;4.53;4.32;;;;;;;8.77;100.00;101698.59;5234460;28;20025;-63
2022/04/11 07:48:36;;;;;;;9.30;5.60;;;;;;;8.86;100.00;101661.44;5226262;28;20029;-63
2022/04/11 07:51:07;;;;;;;12.35;4.47;;;;;;;9.18;100.00;101670.16;5226052;28;20476;-63
2022/04/11 07:53:37;;;;;;;3.95;3.70;;;;;;;9.36;100.00;101672.00;5242499;28;20021;-63
2022/04/11 07:56:08;;;;;;;5.13;4.68;;;;;;;9.55;100.00;101664.66;5223587;22;20038;-57
2022/04/11 08:18:53;;;;;;;4.28;3.80;;;;;;;10.71;96.96;101650.47;6345966;23;20233;-80
2022/04/11 08:21:23;;;;;;;6.50;4.20;;;;;;;10.49;96.75;101617.88;5230424;28;20065;-80
2022/04/11 08:23:53;;;;;;;4.30;4.00;;;;;;;10.80;97.48;101633.69;5232912;28;20029;-80
2022/04/11 08:26:24;;;;;;;5.13;4.72;;;;;;;11.22;94.91;101656.94;5232849;28;20021;-80
2022/04/11 08:28:54;;;;;;;4.90;4.50;;;;;;;11.33;94.00;101651.47;5232636;28;20021;-81
2022/04/11 08:31:25;;;;;;;4.60;4.20;;;;;;;11.47;92.51;101642.03;5232607;28;20055;-81
2022/04/11 08:33:55;;;;;;;4.50;4.20;;;;;;;11.54;93.59;101635.66;5233573;28;20071;-81
2022/04/11 08:36:26;;;;;;;8.55;4.53;;;;;;;11.86;97.23;101642.16;5233808;28;20024;-82
2022/04/11 08:39:16;;;;;;;8.95;4.25;;;;;;;11.95;89.26;101635.28;5224043;28;20029;-82
2022/04/11 09:17:16;;;;;;;4.15;3.75;;;;;;;13.07;82.01;101601.59;5313453;22;20055;-82
2022/04/11 09:19:46;;;;;;;4.20;2.63;;;;;;;13.34;82.43;101594.31;5287701;28;20031;-81
2022/04/11 09:22:30;;;;;;;2.92;2.80;;;;;;;13.75;80.31;101595.50;5297719;28;20023;-82
2022/04/11 09:25:14;;;;;;;5.50;4.15;;;;;;;13.79;76.32;101591.19;5283524;28;20031;-81
2022/04/11 09:28:03;;;;;;;4.73;3.50;;;;;;;13.56;73.99;101564.41;5296737;22;20415;-61
2022/04/11 09:30:35;;;;;;;3.78;3.30;;;;;;;13.68;74.90;101583.22;5217257;28;20394;-62
2022/04/11 09:33:08;;;;;;;2.90;2.70;;;;;;;13.44;76.12;101583.56;5190546;28;20111;-62
2022/04/11 09:35:49;;;;;;;5.65;3.10;;;;;;;13.54;76.35;101580.13;5187415;28;20030;-63
2022/04/11 09:38:21;;;;;;;6.32;2.97;;;;;;;13.62;72.13;101573.38;5187297;28;20025;-62
2022/04/11 09:40:54;;;;;;;3.20;3.00;;;;;;;13.68;74.74;101573.19;5187235;28;20021;-60
2022/04/11 09:43:29;;;;;;;5.22;3.08;;;;;;;13.82;70.68;101562.72;5204556;28;20367;-62
2022/04/11 09:46:03;;;;;;;2.72;2.63;;;;;;;13.68;68.68;101556.91;5187492;28;20557;-62
2022/04/11 09:48:37;;;;;;;2.78;2.67;;;;;;;13.81;69.57;101566.50;5187253;28;20612;-62
2022/04/11 09:51:13;;;;;;;4.40;3.30;;;;;;;13.90;70.69;101561.38;5187371;28;20026;-61
2022/04/11 09:53:45;;;;;;;3.17;2.78;;;;;;;14.00;69.57;101556.84;5187029;28;20030;-62
2022/04/11 09:56:16;;;;;;;2.45;2.35;;;;;;;14.20;69.20;101556.97;5187224;28;20491;-63
2022/04/11 09:58:47;;;;;;;3.38;2.58;;;;;;;14.18;68.25;101555.59;5187322;28;20028;-63
2022/04/11 10:01:20;;;;;;;4.72;2.70;;;;;;;14.26;68.04;101544.25;5204488;28;20025;-63
2022/04/11 10:03:50;;;;;;;4.10;3.72;;;;;;;14.48;67.66;101544.09;5187059;28;20034;-63
2022/04/11 10:06:21;;;;;;;5.78;3.40;;;;;;;14.43;67.04;101541.38;5187213;28;20511;-62
2022/04/11 10:08:51;;;;;;;4.43;3.03;;;;;;;14.47;67.81;101537.03;5205049;28;20079;-62
2022/04/11 10:11:22;;;;;;;8.25;3.78;;;;;;;14.43;67.24;101530.50;5186842;28;20125;-63
2022/04/11 10:13:52;;;;;;;3.45;2.60;;;;;;;14.55;66.38;101520.22;5186978;28;20084;-60
2022/04/11 10:16:23;;;;;;;3.60;3.22;;;;;;;14.71;65.34;101516.47;5187140;28;20029;-61
2022/04/11 10:19:01;;;;;;;3.63;3.42;;;;;;;14.81;63.80;101519.22;5187012;28;20134;-62
2022/04/11 10:21:32;;;;;;;3.60;3.40;;;;;;;15.07;65.53;101514.63;5186762;28;20017;-62
2022/04/11 10:24:06;;;;;;;3.00;2.80;;;;;;;14.96;61.42;101514.91;5186797;28;20515;-62
2022/04/11 10:26:46;;;;;;;2.95;2.75;;;;;;;14.89;60.53;101512.44;5186901;28;20029;-63
2022/04/11 10:29:36;;;;;;;3.80;2.97;;;;;;;14.94;61.69;101498.84;5186813;28;20040;-63
2022/04/11 10:32:15;;;;;;;7.07;2.83;;;;;;;14.98;62.90;101504.56;5186878;28;20030;-63
2022/04/11 10:34:56;;;;;;;8.80;3.97;;;;;;;15.37;62.40;101496.69;5186702;28;20030;-62
2022/04/11 10:37:50;;;;;;;3.05;2.80;;;;;;;15.16;57.86;101496.69;5187114;28;20032;-61
2022/04/11 10:40:20;;;;;;;3.00;2.90;;;;;;;14.92;57.92;101494.75;5183590;28;20036;-63
2022/04/11 10:43:00;;;;;;;3.10;3.00;;;;;;;14.65;57.48;101492.25;5187251;28;20030;-63
2022/04/11 10:45:31;;;;;;;3.05;2.90;;;;;;;14.59;58.98;101491.41;5190824;28;20037;-62
2022/04/11 10:48:06;;;;;;;2.63;2.42;;;;;;;14.64;58.03;101471.59;5191032;28;20025;-62
2022/04/11 10:50:41;;;;;;;3.42;3.22;;;;;;;14.95;61.14;101475.19;5190940;28;20395;-62
2022/04/11 10:53:25;;;;;;;3.80;3.50;;;;;;;15.18;57.68;101467.31;5190456;28;20022;-63
2022/04/11 10:55:55;;;;;;;4.63;4.22;;;;;;;15.06;57.53;101463.22;5190592;28;20044;-63
2022/04/11 10:58:51;;;;;;;3.15;2.90;;;;;;;15.17;58.11;101460.25;5190295;28;20026;-60
2022/04/11 11:01:44;;;;;;;3.42;3.03;;;;;;;15.57;58.09;101452.38;5189789;28;20053;-61
2022/04/11 11:04:19;;;;;;;3.58;3.28;;;;;;;15.92;58.52;101448.72;5189116;28;20029;-62
2022/04/11 11:13:45;;;;;;;9.40;3.58;;;;;;;15.60;53.40;101307.50;5478724;22;20051;-93
2022/04/11 11:16:15;;;;;;;4.72;4.38;;;;;;;16.16;52.83;101422.50;5286394;28;20038;-92
2022/04/11 11:18:52;;;;;;;3.85;2.90;;;;;;;16.17;53.74;101429.53;5273147;28;20020;-91
2022/04/11 11:21:28;;;;;;;4.90;3.72;;;;;;;16.32;55.25;101434.13;5262334;28;20069;-91
2022/04/11 11:24:02;;;;;;;3.20;3.00;;;;;;;16.41;54.73;101416.91;5265242;28;20024;-92
2022/04/11 11:26:38;;;;;;;3.75;3.33;;;;;;;16.19;53.34;101411.81;5285609;28;20032;-93
2022/04/11 11:29:15;;;;;;;2.78;2.40;;;;;;;15.87;54.40;101406.00;5284091;28;20024;-90
2022/04/11 11:31:50;;;;;;;3.28;3.10;;;;;;;15.88;54.21;101432.91;5267457;28;20048;-92
2022/04/11 11:34:23;;;;;;;3.30;3.08;;;;;;;15.75;54.58;101381.78;5269479;28;20020;-91
2022/04/11 11:37:02;;;;;;;5.18;3.30;;;;;;;15.43;56.79;101329.59;5279053;28;20059;-93
2022/04/11 11:39:35;;;;;;;3.83;3.63;;;;;;;16.39;57.72;101442.81;5262534;28;20031;-92
2022/04/11 11:42:12;;;;;;;3.97;3.35;;;;;;;14.83;55.85;101116.53;5280600;28;20108;-91
2022/04/11 11:44:43;;;;;;;3.35;3.15;;;;;;;15.37;56.96;101192.72;5264510;28;20507;-92
2022/04/11 11:47:14;;;;;;;5.03;4.43;;;;;;;16.38;53.70;101354.78;5261394;28;20543;-92
2022/04/11 11:49:46;;;;;;;3.22;3.03;;;;;;;16.46;55.32;101394.22;5280050;28;20093;-92
2022/04/11 11:52:19;;;;;;;3.67;2.97;;;;;;;15.75;54.08;101307.44;5262055;28;20019;-91
2022/04/11 11:54:52;;;;;;;3.83;3.42;;;;;;;15.03;54.23;101240.72;5281220;28;20024;-92
2022/04/11 11:57:29;;;;;;;5.53;3.42;;;;;;;15.43;59.13;101221.53;5266540;28;20062;-91
2022/04/11 12:00:04;;;;;;;5.30;3.33;;;;;;;15.56;55.88;101220.16;5280431;28;20024;-92
2022/04/11 12:05:30;;;;;;;3.40;3.20;;;;;;;16.72;53.64;101389.47;5281046;28;20039;-91
2022/04/11 12:08:13;;;;;;;4.07;3.58;;;;;;;16.55;52.51;101371.53;5262176;28;20098;-93
2022/04/11 12:10:46;;;;;;;4.00;3.22;;;;;;;15.83;54.04;101241.50;5279672;28;20020;-93
2022/04/11 12:13:35;;;;;;;4.00;3.60;;;;;;;16.11;53.90;101302.63;5261749;28;20514;-93
2022/04/11 12:16:07;;;;;;;4.15;3.50;;;;;;;16.76;55.10;101391.31;5263632;28;20087;-92
2022/04/11 12:18:48;;;;;;;4.28;3.00;;;;;;;17.07;53.87;101355.59;5280776;28;20024;-91
2022/04/11 12:21:28;;;;;;;3.60;3.50;;;;;;;16.59;53.59;101270.91;5263651;28;20502;-93
2022/04/11 12:23:59;;;;;;;5.68;4.03;;;;;;;16.41;53.12;101190.66;5262866;28;20064;-91
2022/04/11 12:26:45;;;;;;;3.22;3.03;;;;;;;16.63;50.88;101230.25;5281377;28;20058;-92
2022/04/11 12:29:17;;;;;;;2.90;2.80;;;;;;;16.13;51.22;101180.56;5261726;28;20024;-92
2022/04/11 12:31:59;;;;;;;4.28;3.60;;;;;;;16.73;51.00;101334.66;5262314;28;20020;-92
2022/04/11 12:34:38;;;;;;;5.80;5.40;;;;;;;17.05;55.47;101335.97;5279684;28;20062;-93
2022/04/11 12:37:11;;;;;;;2.83;2.72;;;;;;;17.10;52.61;101338.66;5264843;28;20020;-91
2022/04/11 12:39:52;;;;;;;3.08;2.97;;;;;;;17.16;53.69;101318.41;5280638;28;20469;-92
2022/04/11 12:42:25;;;;;;;3.85;3.65;;;;;;;16.92;52.43;101244.72;5264391;28;20031;-93
2022/04/11 12:45:05;;;;;;;5.05;4.68;;;;;;;17.64;52.22;101330.13;5279975;28;20059;-92
2022/04/11 12:48:07;;;;;;;3.45;3.20;;;;;;;17.52;51.26;101329.75;5279723;28;20031;-93
2022/04/11 12:50:38;;;;;;;3.90;3.55;;;;;;;16.93;52.07;101226.44;5262296;28;20544;-92
2022/04/11 12:53:08;;;;;;;3.67;3.38;;;;;;;17.26;51.38;101243.81;5281408;28;20028;-91
2022/04/11 12:55:48;;;;;;;5.00;3.30;;;;;;;17.99;53.60;101307.03;5266709;28;20016;-93
2022/04/11 12:58:27;;;;;;;3.30;3.03;;;;;;;17.35;51.01;101160.13;5290373;28;20036;-91
2022/04/11 13:01:03;;;;;;;3.72;3.50;;;;;;;16.53;50.33;101034.84;5270484;28;20522;-92
2022/04/11 13:03:34;;;;;;;5.57;3.85;;;;;;;17.86;50.59;101234.03;5270133;28;20031;-90
2022/04/11 13:06:05;;;;;;;2.83;2.72;;;;;;;18.18;50.41;101312.53;5287283;28;20426;-91
2022/04/11 13:08:38;;;;;;;3.40;3.17;;;;;;;17.14;49.37;101162.31;5272043;28;20091;-93
2022/04/11 13:11:09;;;;;;;4.20;3.90;;;;;;;17.90;49.40;101280.69;5293274;28;20016;-93
2022/04/11 13:13:41;;;;;;;3.95;3.67;;;;;;;16.52;50.14;101047.69;5294341;28;20016;-93
2022/04/11 13:19:01;;;;;;;3.88;3.05;;;;;;;18.17;48.36;101278.09;5242707;28;20071;-62
2022/04/11 13:21:31;;;;;;;3.47;3.17;;;;;;;17.77;49.08;101236.59;5229000;28;20051;-62
2022/04/11 13:24:02;;;;;;;3.53;3.28;;;;;;;18.32;51.51;101255.97;5217322;28;20502;-62
2022/04/11 13:26:32;;;;;;;5.90;2.80;;;;;;;18.89;51.97;101262.94;5208605;28;20488;-64
2022/04/11 13:29:02;;;;;;;4.20;3.55;;;;;;;19.23;49.17;101250.81;5225125;28;20505;-64
2022/04/11 13:31:33;;;;;;;3.72;3.40;;;;;;;19.30;49.77;101242.19;5208196;28;20016;-64
2022/04/11 13:34:03;;;;;;;2.65;2.55;;;;;;;19.06;46.90;101247.84;5207737;28;20048;-63
2022/04/11 13:36:34;;;;;;;7.10;3.08;;;;;;;19.34;50.66;101245.94;5225115;28;20029;-61
2022/04/11 13:39:05;;;;;;;3.40;3.20;;;;;;;19.50;46.11;101255.47;5208531;28;20044;-62